createdAt,value
2018-06-16T00:01:43.978Z,15.30
2018-06-16T00:04:12.567Z,15.40
2018-06-16T00:06:41.827Z,15.30
2018-06-16T00:09:10.987Z,15.40
2018-06-16T00:11:39.565Z,15.50
2018-06-16T00:14:08.150Z,15.50
2018-06-16T00:16:36.739Z,15.50
2018-06-16T00:19:05.264Z,15.50
2018-06-16T00:21:33.775Z,15.40
2018-06-16T00:24:02.448Z,15.50
2018-06-16T00:26:31.005Z,15.50
2018-06-16T00:28:59.598Z,15.40
2018-06-16T00:31:28.785Z,15.30
2018-06-16T00:33:57.993Z,15.30
2018-06-16T00:36:26.670Z,15.30
2018-06-16T00:38:55.392Z,15.30
2018-06-16T00:41:24.136Z,15.30
2018-06-16T00:43:52.604Z,15.30
2018-06-16T00:46:21.284Z,15.10
2018-06-16T00:48:49.809Z,15.20
2018-06-16T00:51:18.325Z,15.20
2018-06-16T00:53:47.008Z,15.20
2018-06-16T00:56:15.590Z,15.20
2018-06-16T00:58:44.105Z,15.10
2018-06-16T01:01:12.670Z,15.00
2018-06-16T01:03:41.261Z,15.10
2018-06-16T01:06:09.824Z,15.00
2018-06-16T01:08:38.897Z,14.90
2018-06-16T01:11:07.414Z,14.90
2018-06-16T01:13:35.904Z,14.80
2018-06-16T01:16:04.530Z,14.70
2018-06-16T01:18:33.065Z,14.70
2018-06-16T01:21:01.629Z,14.70
2018-06-16T01:23:30.209Z,14.70
2018-06-16T01:25:59.095Z,14.50
2018-06-16T01:28:27.675Z,14.50
2018-06-16T01:30:56.332Z,14.40
2018-06-16T01:33:24.976Z,14.40
2018-06-16T01:35:54.042Z,14.30
2018-06-16T01:38:22.572Z,14.40
2018-06-16T01:40:51.110Z,14.40
2018-06-16T01:43:19.733Z,14.30
2018-06-16T01:45:48.272Z,14.40
2018-06-16T01:48:16.783Z,14.50
2018-06-16T01:50:45.866Z,14.60
2018-06-16T01:53:14.295Z,14.70
2018-06-16T01:55:42.714Z,14.60
2018-06-16T01:58:11.191Z,14.70
2018-06-16T02:00:39.681Z,14.70
2018-06-16T02:03:08.203Z,14.60
2018-06-16T02:05:36.665Z,14.60
2018-06-16T02:08:05.125Z,14.50
2018-06-16T02:10:33.663Z,14.30
2018-06-16T02:13:02.204Z,14.20
2018-06-16T02:15:30.641Z,14.20
2018-06-16T02:17:59.153Z,14.20
2018-06-16T02:20:27.623Z,13.90
2018-06-16T02:22:56.069Z,13.90
2018-06-16T02:25:24.507Z,14.00
2018-06-16T02:27:53.006Z,14.10
2018-06-16T02:30:21.568Z,14.10
2018-06-16T02:32:50.295Z,14.10
2018-06-16T02:35:18.902Z,14.20
2018-06-16T02:37:47.622Z,14.20
2018-06-16T02:40:16.109Z,14.20
2018-06-16T02:42:44.669Z,14.10
2018-06-16T02:45:13.136Z,14.00
2018-06-16T02:47:42.244Z,13.90
2018-06-16T02:50:10.800Z,13.90
2018-06-16T02:52:39.282Z,13.90
2018-06-16T02:55:08.361Z,14.00
2018-06-16T02:57:36.842Z,14.00
2018-06-16T03:00:05.356Z,13.90
2018-06-16T03:02:34.018Z,13.80
2018-06-16T03:05:02.460Z,13.80
2018-06-16T03:07:31.038Z,13.70
2018-06-16T03:09:59.521Z,13.70
2018-06-16T03:12:28.572Z,13.80
2018-06-16T03:14:57.076Z,13.90
2018-06-16T03:17:25.515Z,14.00
2018-06-16T03:19:53.992Z,14.00
2018-06-16T03:22:22.489Z,14.00
2018-06-16T03:24:50.975Z,13.90
2018-06-16T03:27:19.541Z,13.80
2018-06-16T03:29:48.009Z,13.80
2018-06-16T03:32:16.476Z,13.70
2018-06-16T03:34:44.907Z,13.70
2018-06-16T03:37:13.315Z,13.80
2018-06-16T03:39:41.747Z,13.80
2018-06-16T03:42:10.252Z,13.90
2018-06-16T03:44:38.750Z,13.90
2018-06-16T03:47:07.214Z,13.90
2018-06-16T03:49:35.861Z,13.70
2018-06-16T03:52:04.398Z,13.60
2018-06-16T03:54:32.879Z,13.60
2018-06-16T03:57:01.371Z,13.70
2018-06-16T03:59:29.824Z,13.60
2018-06-16T04:01:59.033Z,13.70
2018-06-16T04:04:27.638Z,13.80
2018-06-16T04:06:56.154Z,13.90
2018-06-16T04:09:24.607Z,14.00
2018-06-16T04:11:53.224Z,14.10
2018-06-16T04:14:21.751Z,14.20
2018-06-16T04:16:50.934Z,14.20
2018-06-16T04:19:19.600Z,14.20
2018-06-16T04:21:48.198Z,14.20
2018-06-16T04:24:16.658Z,14.30
2018-06-16T04:26:45.157Z,14.30
2018-06-16T04:29:13.677Z,14.40
2018-06-16T04:31:42.190Z,14.40
2018-06-16T04:34:10.722Z,14.50
2018-06-16T04:36:39.267Z,14.60
2018-06-16T04:39:08.985Z,14.70
2018-06-16T04:41:37.559Z,14.70
2018-06-16T04:44:06.114Z,14.70
2018-06-16T04:46:34.771Z,14.70
2018-06-16T04:49:03.516Z,14.70
2018-06-16T04:51:32.778Z,14.80
2018-06-16T04:54:01.289Z,14.90
2018-06-16T04:56:29.781Z,15.00
2018-06-16T04:58:58.866Z,15.10
2018-06-16T05:01:27.446Z,15.20
2018-06-16T05:03:56.469Z,15.30
2018-06-16T05:06:25.655Z,15.40
2018-06-16T05:08:54.120Z,15.50
2018-06-16T05:11:22.610Z,15.60
2018-06-16T05:13:51.062Z,15.60
2018-06-16T05:18:47.703Z,15.80
2018-06-16T05:21:16.188Z,15.80
2018-06-16T05:23:45.364Z,15.90
2018-06-16T05:26:13.850Z,16.00
2018-06-16T05:28:43.505Z,16.10
2018-06-16T05:31:12.865Z,16.20
2018-06-16T05:33:41.328Z,16.00
2018-06-16T05:36:10.523Z,16.10
2018-06-16T05:38:38.971Z,16.30
2018-06-16T05:41:07.416Z,16.40
2018-06-16T05:43:36.441Z,16.50
2018-06-16T05:46:05.072Z,16.60
2018-06-16T05:48:34.229Z,16.70
2018-06-16T05:51:02.679Z,16.80
2018-06-16T05:53:31.728Z,16.90
2018-06-16T05:56:00.189Z,16.90
2018-06-16T05:58:28.649Z,17.10
2018-06-16T06:00:57.174Z,17.10
2018-06-16T06:03:25.598Z,17.10
2018-06-16T06:05:54.115Z,17.10
2018-06-16T06:08:22.676Z,17.30
2018-06-16T06:10:51.209Z,17.40
2018-06-16T06:13:19.663Z,17.50
2018-06-16T06:15:48.287Z,17.60
2018-06-16T06:18:16.713Z,17.80
2018-06-16T06:20:45.182Z,17.90
2018-06-16T06:23:13.692Z,18.00
2018-06-16T06:25:42.300Z,18.10
2018-06-16T06:28:11.354Z,18.20
2018-06-16T06:30:39.809Z,18.20
2018-06-16T06:33:08.310Z,18.30
2018-06-16T06:35:36.917Z,18.40
2018-06-16T06:38:05.424Z,18.30
2018-06-16T06:40:33.903Z,18.20
2018-06-16T06:43:02.373Z,18.40
2018-06-16T06:45:30.857Z,18.60
2018-06-16T06:48:00.196Z,18.80
2018-06-16T06:50:28.617Z,18.80
2018-06-16T06:52:57.126Z,19.00
2018-06-16T06:55:26.472Z,19.20
2018-06-16T06:57:55.101Z,19.40
2018-06-16T07:00:24.185Z,19.40
2018-06-16T07:02:52.782Z,19.40
2018-06-16T07:05:21.340Z,19.40
2018-06-16T07:07:49.774Z,19.50
2018-06-16T07:10:18.289Z,19.70
2018-06-16T07:12:46.741Z,19.90
2018-06-16T07:15:15.230Z,20.10
2018-06-16T07:17:43.739Z,20.30
2018-06-16T07:20:12.253Z,20.40
2018-06-16T07:22:40.781Z,20.40
2018-06-16T07:25:09.849Z,20.50
2018-06-16T07:27:38.433Z,20.60
2018-06-16T07:30:06.911Z,20.80
2018-06-16T07:32:35.370Z,21.00
2018-06-16T07:35:04.380Z,21.20
2018-06-16T07:37:32.922Z,21.40
2018-06-16T07:40:01.357Z,21.60
2018-06-16T07:42:30.113Z,21.60
2018-06-16T07:44:58.663Z,21.70
2018-06-16T07:47:27.166Z,22.10
2018-06-16T07:49:56.073Z,22.10
2018-06-16T07:52:24.629Z,22.30
2018-06-16T07:54:53.081Z,22.70
2018-06-16T07:57:21.634Z,22.70
2018-06-16T07:59:50.693Z,23.00
2018-06-16T08:02:19.244Z,22.80
2018-06-16T08:04:47.802Z,22.80
2018-06-16T08:07:16.393Z,23.20
2018-06-16T08:09:45.460Z,23.70
2018-06-16T08:12:13.951Z,23.70
2018-06-16T08:14:42.456Z,23.70
2018-06-16T08:17:11.738Z,23.90
2018-06-16T08:19:40.216Z,24.30
2018-06-16T08:22:09.205Z,24.40
2018-06-16T08:24:37.848Z,25.00
2018-06-16T08:27:06.270Z,25.40
2018-06-16T08:29:35.454Z,25.70
2018-06-16T08:32:04.065Z,25.90
2018-06-16T08:34:32.665Z,26.10
2018-06-16T08:37:01.160Z,26.00
2018-06-16T08:39:29.682Z,26.20
2018-06-16T08:41:58.214Z,26.60
2018-06-16T08:44:27.408Z,27.00
2018-06-16T08:46:56.653Z,27.30
2018-06-16T08:49:25.132Z,27.60
2018-06-16T08:51:53.557Z,27.50
2018-06-16T08:54:22.236Z,27.70
2018-06-16T08:56:50.841Z,28.00
2018-06-16T08:59:19.499Z,28.70
2018-06-16T09:01:48.869Z,28.10
2018-06-16T09:04:17.364Z,28.20
2018-06-16T09:06:45.933Z,28.80
2018-06-16T09:09:15.750Z,29.10
2018-06-16T09:11:44.420Z,28.90
2018-06-16T09:14:13.665Z,29.40
2018-06-16T09:16:42.150Z,28.90
2018-06-16T09:19:10.706Z,28.90
2018-06-16T09:21:39.273Z,28.90
2018-06-16T09:24:07.924Z,29.20
2018-06-16T09:26:36.520Z,29.20
2018-06-16T09:29:04.965Z,29.20
2018-06-16T09:31:33.634Z,29.60
2018-06-16T09:34:02.127Z,29.70
2018-06-16T09:36:30.604Z,29.90
2018-06-16T09:39:03.279Z,29.80
2018-06-16T09:41:31.786Z,29.60
2018-06-16T09:44:00.425Z,29.90
2018-06-16T09:46:29.097Z,30.20
2018-06-16T09:48:57.554Z,30.20
2018-06-16T09:51:26.119Z,30.10
2018-06-16T09:53:54.754Z,30.20
2018-06-16T09:56:23.235Z,29.80
2018-06-16T09:58:52.249Z,29.60
2018-06-16T10:01:20.747Z,29.70
2018-06-16T10:03:49.427Z,29.80
2018-06-16T10:06:17.940Z,29.80
2018-06-16T10:08:46.492Z,30.20
2018-06-16T10:11:14.987Z,30.20
2018-06-16T10:13:43.578Z,30.40
2018-06-16T10:16:12.570Z,29.60
2018-06-16T10:18:41.112Z,29.70
2018-06-16T10:21:09.602Z,29.80
2018-06-16T10:23:38.844Z,29.70
2018-06-16T10:26:07.313Z,28.70
2018-06-16T10:28:35.988Z,29.00
2018-06-16T10:31:04.443Z,29.60
2018-06-16T10:33:32.904Z,29.90
2018-06-16T10:36:01.435Z,30.00
2018-06-16T10:38:29.927Z,30.40
2018-06-16T10:40:59.270Z,30.10
2018-06-16T10:43:27.775Z,30.00
2018-06-16T10:45:56.971Z,29.50
2018-06-16T10:48:25.475Z,29.40
2018-06-16T10:50:54.050Z,29.50
2018-06-16T10:53:22.507Z,29.00
2018-06-16T10:55:51.615Z,28.50
2018-06-16T10:58:20.910Z,28.50
2018-06-16T11:00:49.364Z,28.50
2018-06-16T11:03:17.875Z,29.10
2018-06-16T11:05:46.408Z,29.50
2018-06-16T11:08:14.918Z,30.00
2018-06-16T11:10:43.485Z,29.90
2018-06-16T11:13:12.149Z,30.10
2018-06-16T11:15:40.729Z,30.10
2018-06-16T11:18:09.855Z,29.50
2018-06-16T11:20:38.290Z,30.10
2018-06-16T11:23:07.247Z,30.20
2018-06-16T11:25:35.736Z,30.50
2018-06-16T11:28:04.365Z,30.30
2018-06-16T11:30:32.980Z,30.20
2018-06-16T11:33:01.445Z,30.20
2018-06-16T11:35:29.885Z,30.30
2018-06-16T11:37:58.387Z,30.20
2018-06-16T11:40:26.984Z,30.30
2018-06-16T11:42:56.270Z,30.50
2018-06-16T11:45:24.911Z,30.30
2018-06-16T11:47:54.571Z,30.20
2018-06-16T11:50:23.766Z,29.60
2018-06-16T11:52:52.344Z,29.70
2018-06-16T11:55:20.933Z,29.90
2018-06-16T11:57:49.492Z,29.60
2018-06-16T12:00:18.026Z,29.60
2018-06-16T12:02:46.578Z,29.80
2018-06-16T12:05:15.114Z,29.10
2018-06-16T12:07:43.783Z,28.80
2018-06-16T12:10:12.342Z,29.10
2018-06-16T12:12:41.338Z,29.20
2018-06-16T12:15:09.754Z,29.10
2018-06-16T12:17:38.306Z,29.40
2018-06-16T12:20:06.816Z,30.00
2018-06-16T12:22:35.311Z,30.10
2018-06-16T12:25:03.963Z,30.20
2018-06-16T12:27:33.237Z,29.80
2018-06-16T12:30:01.874Z,29.90
2018-06-16T12:32:30.486Z,30.20
2018-06-16T12:34:58.951Z,29.50
2018-06-16T12:37:27.548Z,29.60
2018-06-16T12:39:56.058Z,29.30
2018-06-16T12:42:24.581Z,28.40
2018-06-16T12:44:53.142Z,27.70
2018-06-16T12:47:21.648Z,27.60
2018-06-16T12:49:50.443Z,27.70
2018-06-16T12:52:19.745Z,27.70
2018-06-16T12:54:48.221Z,27.30
2018-06-16T12:57:17.179Z,27.10
2018-06-16T12:59:45.666Z,26.80
2018-06-16T13:02:15.310Z,26.70
2018-06-16T13:04:43.839Z,27.30
2018-06-16T13:07:12.448Z,27.80
2018-06-16T13:09:40.994Z,28.30
2018-06-16T13:12:09.569Z,28.70
2018-06-16T13:14:38.172Z,28.70
2018-06-16T13:17:06.707Z,29.00
2018-06-16T13:19:35.769Z,28.90
2018-06-16T13:22:04.979Z,29.20
2018-06-16T13:24:33.462Z,29.60
2018-06-16T13:27:02.022Z,29.60
2018-06-16T13:29:31.155Z,29.00
2018-06-16T13:31:59.718Z,29.10
2018-06-16T13:34:28.918Z,29.30
2018-06-16T13:36:57.459Z,29.50
2018-06-16T13:39:26.089Z,29.40
2018-06-16T13:41:54.635Z,29.10
2018-06-16T13:44:23.253Z,29.50
2018-06-16T13:46:51.937Z,29.30
2018-06-16T13:49:20.487Z,28.60
2018-06-16T13:51:48.950Z,27.90
2018-06-16T13:54:17.597Z,27.60
2018-06-16T13:56:46.190Z,28.10
2018-06-16T13:59:14.677Z,27.90
2018-06-16T14:01:43.259Z,28.10
2018-06-16T14:04:11.785Z,28.20
2018-06-16T14:06:40.260Z,28.50
2018-06-16T14:09:09.824Z,28.50
2018-06-16T14:11:39.108Z,28.30
2018-06-16T14:14:07.664Z,28.10
2018-06-16T14:16:36.181Z,27.90
2018-06-16T14:19:04.784Z,27.90
2018-06-16T14:21:33.386Z,27.30
2018-06-16T14:24:01.837Z,27.10
2018-06-16T14:26:30.603Z,26.70
2018-06-16T14:28:59.221Z,26.80
2018-06-16T14:31:27.739Z,26.90
2018-06-16T14:33:56.269Z,27.00
2018-06-16T14:36:25.523Z,26.80
2018-06-16T14:38:54.114Z,27.10
2018-06-16T14:41:22.679Z,26.90
2018-06-16T14:43:51.322Z,26.80
2018-06-16T14:46:20.486Z,26.70
2018-06-16T14:48:49.055Z,26.50
2018-06-16T14:53:46.538Z,26.20
2018-06-16T14:56:15.612Z,26.20
2018-06-16T15:01:12.978Z,26.20
2018-06-16T15:03:41.475Z,26.20
2018-06-16T15:06:09.989Z,26.00
2018-06-16T15:08:38.536Z,26.20
2018-06-16T15:11:07.788Z,26.70
2018-06-16T15:13:36.256Z,26.90
2018-06-16T15:16:05.106Z,26.60
2018-06-16T15:18:33.573Z,26.80
2018-06-16T15:21:02.166Z,26.80
2018-06-16T15:23:30.629Z,26.80
2018-06-16T15:26:00.032Z,26.90
2018-06-16T15:28:28.566Z,27.10
2018-06-16T15:30:57.131Z,27.20
2018-06-16T15:33:25.944Z,27.50
2018-06-16T15:35:54.466Z,27.30
2018-06-16T15:38:23.527Z,26.90
2018-06-16T15:40:52.824Z,26.80
2018-06-16T15:43:21.494Z,26.80
2018-06-16T15:45:50.040Z,26.70
2018-06-16T15:48:18.521Z,26.80
2018-06-16T15:50:46.966Z,26.80
2018-06-16T15:53:15.501Z,26.80
2018-06-16T15:55:44.032Z,26.50
2018-06-16T15:58:12.525Z,26.60
2018-06-16T16:00:41.572Z,26.40
2018-06-16T16:03:09.977Z,26.60
2018-06-16T16:05:38.552Z,26.50
2018-06-16T16:08:07.464Z,26.60
2018-06-16T16:10:35.970Z,26.60
2018-06-16T16:13:04.581Z,26.50
2018-06-16T16:15:33.897Z,26.50
2018-06-16T16:18:02.470Z,26.50
2018-06-16T16:20:31.018Z,26.40
2018-06-16T16:22:59.711Z,26.30
2018-06-16T16:25:28.209Z,26.50
2018-06-16T16:27:56.706Z,26.50
2018-06-16T16:30:26.216Z,26.70
2018-06-16T16:32:55.080Z,26.60
2018-06-16T16:35:24.364Z,26.50
2018-06-16T16:37:53.250Z,26.30
2018-06-16T16:40:21.826Z,26.50
2018-06-16T16:42:50.383Z,26.40
2018-06-16T16:45:18.939Z,26.10
2018-06-16T16:47:47.668Z,26.10
2018-06-16T16:50:16.261Z,26.00
2018-06-16T16:52:44.739Z,26.00
2018-06-16T16:55:13.372Z,26.10
2018-06-16T16:57:41.936Z,26.10
2018-06-16T17:00:10.428Z,26.20
2018-06-16T17:02:39.054Z,26.10
2018-06-16T17:05:07.638Z,26.10
2018-06-16T17:07:36.194Z,26.10
2018-06-16T17:10:05.080Z,26.00
2018-06-16T17:12:33.728Z,25.90
2018-06-16T17:15:02.205Z,25.70
2018-06-16T17:17:30.762Z,25.50
2018-06-16T17:19:59.234Z,25.50
2018-06-16T17:22:28.413Z,25.50
2018-06-16T17:24:57.650Z,25.50
2018-06-16T17:27:26.681Z,25.50
2018-06-16T17:29:55.150Z,25.50
2018-06-16T17:32:23.898Z,25.50
2018-06-16T17:34:52.423Z,25.50
2018-06-16T17:37:20.998Z,25.40
2018-06-16T17:39:49.583Z,25.50
2018-06-16T17:42:18.148Z,25.40
2018-06-16T17:44:46.654Z,25.40
2018-06-16T17:47:15.740Z,25.30
2018-06-16T17:49:44.902Z,25.20
2018-06-16T17:52:13.649Z,25.20
2018-06-16T17:54:43.316Z,25.20
2018-06-16T17:57:11.954Z,25.30
2018-06-16T17:59:40.415Z,25.20
2018-06-16T18:02:08.897Z,25.00
2018-06-16T18:04:37.885Z,25.00
2018-06-16T18:07:06.479Z,24.90
2018-06-16T18:09:35.679Z,24.80
2018-06-16T18:12:04.259Z,24.80
2018-06-16T18:17:01.052Z,24.80
2018-06-16T18:19:29.619Z,24.80
2018-06-16T18:21:58.205Z,24.80
2018-06-16T18:24:27.266Z,24.70
2018-06-16T18:26:55.847Z,24.60
2018-06-16T18:29:24.411Z,24.60
2018-06-16T18:31:52.875Z,24.70
2018-06-16T18:34:22.205Z,24.70
2018-06-16T18:36:51.244Z,24.70
2018-06-16T18:39:20.597Z,24.70
2018-06-16T18:41:49.058Z,24.70
2018-06-16T18:44:17.576Z,24.60
2018-06-16T18:46:46.229Z,24.60
2018-06-16T18:49:14.820Z,24.60
2018-06-16T18:51:43.882Z,24.60
2018-06-16T18:54:12.419Z,24.60
2018-06-16T18:56:41.146Z,24.60
2018-06-16T18:59:09.808Z,24.50
2018-06-16T19:01:38.335Z,24.50
2018-06-16T19:04:06.886Z,24.50
2018-06-16T19:06:35.465Z,24.40
2018-06-16T19:09:05.681Z,24.30
2018-06-16T19:11:34.193Z,24.30
2018-06-16T19:14:02.711Z,24.10
2018-06-16T19:16:31.269Z,24.00
2018-06-16T19:19:00.515Z,23.90
2018-06-16T19:21:29.566Z,23.80
2018-06-16T19:23:58.131Z,23.70
2018-06-16T19:26:26.902Z,23.60
2018-06-16T19:31:23.903Z,23.40
2018-06-16T19:33:52.510Z,23.30
2018-06-16T19:36:21.517Z,23.30
2018-06-16T19:38:50.597Z,23.20
2018-06-16T19:41:19.187Z,23.10
2018-06-16T19:43:47.643Z,23.00
2018-06-16T19:46:16.195Z,23.00
2018-06-16T19:48:44.698Z,22.90
2018-06-16T19:51:13.751Z,22.80
2018-06-16T19:53:42.282Z,22.70
2018-06-16T19:56:12.288Z,22.70
2018-06-16T19:58:40.885Z,22.70
2018-06-16T20:01:10.215Z,22.70
2018-06-16T20:03:38.785Z,22.60
2018-06-16T20:06:07.283Z,22.50
2018-06-16T20:08:35.860Z,22.40
2018-06-16T20:11:04.376Z,22.30
2018-06-16T20:13:32.819Z,22.30
2018-06-16T20:16:01.319Z,22.20
2018-06-16T20:18:29.893Z,22.20
2018-06-16T20:20:58.473Z,22.20
2018-06-16T20:23:26.970Z,22.20
2018-06-16T20:25:55.526Z,22.20
2018-06-16T20:28:24.043Z,22.30
2018-06-16T20:30:53.092Z,22.30
2018-06-16T20:33:21.621Z,22.30
2018-06-16T20:35:50.928Z,22.30
2018-06-16T20:38:19.431Z,22.30
2018-06-16T20:40:48.026Z,22.40
2018-06-16T20:43:17.300Z,22.40
2018-06-16T20:45:45.850Z,22.40
2018-06-16T20:48:14.373Z,22.40
2018-06-16T20:50:42.904Z,22.40
2018-06-16T20:53:11.401Z,22.40
2018-06-16T20:55:39.939Z,22.40
2018-06-16T20:58:08.526Z,22.40
2018-06-16T21:00:37.663Z,22.30
2018-06-16T21:03:06.241Z,22.30
2018-06-16T21:05:34.779Z,22.30
2018-06-16T21:08:03.224Z,22.30
2018-06-16T21:10:31.691Z,22.30
2018-06-16T21:13:00.153Z,22.20
2018-06-16T21:15:28.624Z,22.20
2018-06-16T21:17:57.090Z,22.10
2018-06-16T21:20:25.717Z,22.10
2018-06-16T21:22:54.230Z,21.90
2018-06-16T21:25:22.739Z,21.70
2018-06-16T21:27:51.449Z,21.50
2018-06-16T21:30:19.991Z,21.50
2018-06-16T21:32:49.054Z,21.40
2018-06-16T21:35:17.516Z,21.40
2018-06-16T21:37:46.081Z,21.40
2018-06-16T21:40:14.746Z,21.30
2018-06-16T21:42:43.293Z,21.30
2018-06-16T21:45:12.257Z,21.10
2018-06-16T21:47:40.838Z,20.90
2018-06-16T21:50:09.451Z,20.90
2018-06-16T21:52:37.980Z,20.90
2018-06-16T21:55:07.241Z,20.80
2018-06-16T21:57:35.985Z,20.70
2018-06-16T22:00:08.132Z,20.70
2018-06-16T22:02:37.180Z,20.70
2018-06-16T22:05:05.933Z,20.60
2018-06-16T22:07:34.487Z,20.60
2018-06-16T22:10:03.260Z,20.50
2018-06-16T22:12:31.737Z,20.50
2018-06-16T22:15:00.214Z,20.30
2018-06-16T22:17:28.654Z,20.10
2018-06-16T22:19:57.275Z,20.10
2018-06-16T22:22:25.779Z,19.90
2018-06-16T22:24:54.762Z,19.90
2018-06-16T22:27:23.206Z,19.90
2018-06-16T22:29:51.667Z,19.90
2018-06-16T22:32:20.228Z,19.90
2018-06-16T22:34:48.821Z,19.90
2018-06-16T22:37:17.297Z,19.90
2018-06-16T22:39:45.741Z,20.00
2018-06-16T22:42:14.185Z,19.90
2018-06-16T22:44:42.678Z,20.00
2018-06-16T22:47:11.159Z,20.00
2018-06-16T22:49:39.649Z,20.00
2018-06-16T22:52:08.160Z,20.00
2018-06-16T22:54:36.856Z,20.00
2018-06-16T22:57:05.393Z,20.00
2018-06-16T22:59:33.851Z,20.00
2018-06-16T23:02:02.423Z,20.00
2018-06-16T23:04:31.198Z,20.10
2018-06-16T23:06:59.779Z,20.10
2018-06-16T23:09:28.256Z,20.10
2018-06-16T23:11:57.454Z,20.20
2018-06-16T23:14:25.941Z,20.10
2018-06-16T23:16:54.494Z,20.00
2018-06-16T23:19:23.037Z,20.10
2018-06-16T23:21:51.487Z,20.10
2018-06-16T23:24:20.038Z,20.10
2018-06-16T23:26:48.497Z,20.10
2018-06-16T23:29:17.710Z,20.10
2018-06-16T23:31:46.185Z,20.10
2018-06-16T23:34:14.675Z,20.00
2018-06-16T23:36:43.585Z,20.10
2018-06-16T23:39:13.253Z,20.10
2018-06-16T23:41:42.078Z,20.10
2018-06-16T23:44:10.698Z,20.00
2018-06-16T23:46:39.127Z,20.00
2018-06-16T23:49:07.713Z,20.00
2018-06-16T23:51:36.245Z,20.00
2018-06-16T23:54:05.465Z,20.00
2018-06-16T23:56:34.677Z,19.90
2018-06-16T23:59:03.117Z,19.90
